createdAt,value
2022-08-25T00:00:19.568Z,20.60
2022-08-25T00:33:49.529Z,20.90
2022-08-25T00:36:18.837Z,21.00
2022-08-25T00:38:49.772Z,20.90
2022-08-25T00:41:23.612Z,21.50
2022-08-25T00:44:01.812Z,20.80
2022-08-25T00:46:35.947Z,20.80
2022-08-25T00:49:24.856Z,20.80
2022-08-25T00:52:00.325Z,20.90
2022-08-25T00:54:40.918Z,20.80
2022-08-25T00:57:12.949Z,20.70
2022-08-25T00:59:42.971Z,20.70
2022-08-25T01:02:15.403Z,20.70
2022-08-25T01:04:48.621Z,20.70
2022-08-25T01:07:20.910Z,20.60
2022-08-25T01:09:53.370Z,20.70
2022-08-25T01:12:22.794Z,20.60
2022-08-25T01:25:00.009Z,20.60
2022-08-25T01:32:26.553Z,20.40
2022-08-25T01:42:59.623Z,20.40
2022-08-25T01:53:06.340Z,20.50
2022-08-25T01:58:25.791Z,20.30
2022-08-25T02:00:57.621Z,20.40
2022-08-25T02:03:27.103Z,20.40
2022-08-25T02:08:25.771Z,19.80
2022-08-25T02:10:55.669Z,20.20
2022-08-25T02:13:26.990Z,20.10
2022-08-25T02:16:02.314Z,20.00
2022-08-25T02:36:00.886Z,20.00
2022-08-25T02:38:30.669Z,20.00
2022-08-25T02:41:01.166Z,19.90
2022-08-25T02:43:30.157Z,20.00
2022-08-25T03:00:51.370Z,19.80
2022-08-25T03:23:14.337Z,19.90
2022-08-25T03:31:04.304Z,19.80
2022-08-25T03:33:33.262Z,19.80
2022-08-25T03:50:54.838Z,20.90
2022-08-25T03:53:23.159Z,19.30
2022-08-25T04:15:44.687Z,19.40
2022-08-25T04:20:46.939Z,19.40
2022-08-25T04:30:46.410Z,19.50
2022-08-25T04:35:50.670Z,19.00
2022-08-25T04:55:49.619Z,19.80
2022-08-25T05:10:43.180Z,19.80
2022-08-25T05:18:23.885Z,19.80
2022-08-25T05:20:54.359Z,20.10
2022-08-25T05:23:25.219Z,20.10
2022-08-25T05:25:54.315Z,20.20
2022-08-25T06:20:33.072Z,22.30
2022-08-25T07:00:17.462Z,23.60
2022-08-25T07:17:59.020Z,24.10
2022-08-25T07:35:26.265Z,24.30
2022-08-25T07:37:58.130Z,24.30
2022-08-25T07:40:33.000Z,24.40
2022-08-25T07:43:06.257Z,24.30
2022-08-25T07:45:42.101Z,24.30
2022-08-25T07:50:49.910Z,25.40
2022-08-25T07:53:19.054Z,24.50
2022-08-25T08:06:13.343Z,25.40
2022-08-25T08:11:23.942Z,25.30
2022-08-25T08:16:23.619Z,25.50
2022-08-25T08:21:28.912Z,25.30
2022-08-25T08:23:59.299Z,25.20
2022-08-25T08:26:48.155Z,25.30
2022-08-25T08:42:22.394Z,26.20
2022-08-25T08:45:31.172Z,25.90
2022-08-25T08:48:32.376Z,26.00
2022-08-25T08:51:13.480Z,25.80
2022-08-25T08:56:30.697Z,26.20
2022-08-25T08:59:30.277Z,26.10
2022-08-25T09:02:04.186Z,25.50
2022-08-25T09:05:00.241Z,25.50
2022-08-25T09:07:38.156Z,26.30
2022-08-25T09:10:11.718Z,26.30
2022-08-25T09:13:11.245Z,26.30
2022-08-25T09:16:01.270Z,25.60
2022-08-25T09:18:50.932Z,26.50
2022-08-25T09:22:33.462Z,26.50
2022-08-25T09:30:17.196Z,26.80
2022-08-25T09:32:53.681Z,26.90
2022-08-25T09:38:01.590Z,26.90
2022-08-25T09:40:33.850Z,26.90
2022-08-25T09:43:06.093Z,26.70
2022-08-25T09:45:48.852Z,26.80
2022-08-25T09:48:44.401Z,27.80
2022-08-25T09:51:42.142Z,27.60
2022-08-25T09:54:14.360Z,26.70
2022-08-25T09:56:57.700Z,26.70
2022-08-25T09:59:35.123Z,26.60
2022-08-25T10:02:28.873Z,26.50
2022-08-25T10:07:56.551Z,26.50
2022-08-25T10:10:33.236Z,26.40
2022-08-25T10:13:06.167Z,26.40
2022-08-25T10:15:38.821Z,26.30
2022-08-25T10:18:30.536Z,26.40
2022-08-25T10:21:17.541Z,27.50
2022-08-25T10:23:55.930Z,26.00
2022-08-25T10:27:11.599Z,27.00
2022-08-25T10:30:06.350Z,27.30
2022-08-25T10:33:19.247Z,26.30
2022-08-25T10:36:20.591Z,27.40
2022-08-25T10:38:58.462Z,26.50
2022-08-25T10:42:19.193Z,26.60
2022-08-25T10:45:34.751Z,27.60
2022-08-25T10:48:30.372Z,27.00
2022-08-25T10:51:25.419Z,26.80
2022-08-25T10:54:29.414Z,26.90
2022-08-25T10:57:37.500Z,26.20
2022-08-25T11:00:14.513Z,27.60
2022-08-25T11:05:42.109Z,27.40
2022-08-25T11:08:39.211Z,27.10
2022-08-25T11:11:21.877Z,27.30
2022-08-25T11:14:09.262Z,27.40
2022-08-25T11:17:21.207Z,27.10
2022-08-25T11:19:53.437Z,27.50
2022-08-25T11:22:39.749Z,27.10
2022-08-25T11:25:34.475Z,27.70
2022-08-25T11:28:28.345Z,28.20
2022-08-25T11:31:00.333Z,28.60
2022-08-25T11:33:31.172Z,26.60
2022-08-25T11:36:13.720Z,27.40
2022-08-25T11:39:06.829Z,28.00
2022-08-25T11:41:43.397Z,27.10
2022-08-25T11:44:57.927Z,27.50
2022-08-25T11:50:29.842Z,27.80
2022-08-25T11:53:23.706Z,27.20
2022-08-25T11:56:02.408Z,27.70
2022-08-25T11:58:45.403Z,28.20
2022-08-25T12:01:33.660Z,27.10
2022-08-25T12:04:16.111Z,27.90
2022-08-25T12:07:10.957Z,28.80
2022-08-25T12:10:07.964Z,27.70
2022-08-25T12:12:57.279Z,26.70
2022-08-25T12:15:32.831Z,28.10
2022-08-25T12:18:22.938Z,27.40
2022-08-25T12:20:56.758Z,27.60
2022-08-25T12:23:45.071Z,27.10
2022-08-25T12:26:47.367Z,26.80
2022-08-25T12:32:15.935Z,26.70
2022-08-25T12:34:46.863Z,27.10
2022-08-25T12:42:33.413Z,26.40
2022-08-25T12:45:23.893Z,27.90
2022-08-25T12:47:57.641Z,28.30
2022-08-25T12:50:41.696Z,27.90
2022-08-25T12:53:40.586Z,27.90
2022-08-25T12:56:37.539Z,27.00
2022-08-25T12:59:22.942Z,27.80
2022-08-25T13:02:30.551Z,28.40
2022-08-25T13:05:07.368Z,28.60
2022-08-25T13:08:19.385Z,27.60
2022-08-25T13:10:57.758Z,27.50
2022-08-25T13:16:27.064Z,27.50
2022-08-25T13:19:01.569Z,27.70
2022-08-25T13:21:39.437Z,28.40
2022-08-25T13:24:18.532Z,27.70
2022-08-25T13:29:25.618Z,27.20
2022-08-25T13:32:09.678Z,28.10
2022-08-25T13:34:42.796Z,28.90
2022-08-25T13:37:29.773Z,27.90
2022-08-25T13:40:29.511Z,28.50
2022-08-25T13:43:06.643Z,27.80
2022-08-25T13:45:42.534Z,28.60
2022-08-25T13:48:23.105Z,28.70
2022-08-25T13:50:53.123Z,28.50
2022-08-25T13:53:30.492Z,27.90
2022-08-25T13:56:02.982Z,27.70
2022-08-25T13:58:44.860Z,28.50
2022-08-25T14:01:45.125Z,29.40
2022-08-25T14:04:51.104Z,28.20
2022-08-25T14:07:22.824Z,28.40
2022-08-25T14:10:00.151Z,27.50
2022-08-25T14:12:45.458Z,27.80
2022-08-25T14:15:33.387Z,28.50
2022-08-25T14:18:32.449Z,29.50
2022-08-25T14:21:10.786Z,28.60
2022-08-25T14:23:40.613Z,28.60
2022-08-25T14:26:08.703Z,27.90
2022-08-25T14:31:16.569Z,28.70
2022-08-25T14:33:59.528Z,28.90
2022-08-25T14:36:30.412Z,29.00
2022-08-25T14:38:59.466Z,28.90
2022-08-25T14:41:29.598Z,28.00
2022-08-25T14:43:57.691Z,28.70
2022-08-25T14:46:32.100Z,29.60
2022-08-25T14:49:05.056Z,29.40
2022-08-25T14:51:36.216Z,28.70
2022-08-25T14:54:08.102Z,28.50
2022-08-25T14:56:37.679Z,29.60
2022-08-25T14:59:07.588Z,28.90
2022-08-25T15:06:37.365Z,28.80
2022-08-25T15:09:11.247Z,28.50
2022-08-25T15:11:46.316Z,28.00
2022-08-25T15:14:17.375Z,29.20
2022-08-25T15:16:53.662Z,28.70
2022-08-25T15:19:25.329Z,29.50
2022-08-25T15:24:26.770Z,28.30
2022-08-25T15:27:01.922Z,27.90
2022-08-25T15:29:32.034Z,28.40
2022-08-25T15:32:01.181Z,28.10
2022-08-25T15:34:31.260Z,28.80
2022-08-25T15:37:01.163Z,29.10
2022-08-25T15:39:30.902Z,29.50
2022-08-25T15:44:29.775Z,28.30
2022-08-25T15:49:31.373Z,28.70
2022-08-25T15:52:00.335Z,29.50
2022-08-25T15:54:30.456Z,28.50
2022-08-25T15:56:59.800Z,28.40
2022-08-25T15:59:29.342Z,29.30
2022-08-25T16:04:28.618Z,27.60
2022-08-25T16:11:56.636Z,27.30
2022-08-25T16:14:28.001Z,27.20
2022-08-25T16:21:57.250Z,29.50
2022-08-25T16:24:26.298Z,28.60
2022-08-25T16:27:00.269Z,28.50
2022-08-25T16:29:41.934Z,28.70
2022-08-25T16:37:10.814Z,28.50
2022-08-25T16:42:13.151Z,29.30
2022-08-25T16:49:43.353Z,28.40
2022-08-25T16:55:15.924Z,29.10
2022-08-25T16:57:53.802Z,28.20
2022-08-25T17:00:28.281Z,28.00
2022-08-25T17:03:04.810Z,27.80
2022-08-25T17:05:37.014Z,28.00
2022-08-25T17:08:22.765Z,28.70
2022-08-25T17:13:19.196Z,27.40
2022-08-25T17:15:52.500Z,27.50
2022-08-25T17:20:50.449Z,28.70
2022-08-25T17:25:52.026Z,27.60
2022-08-25T17:28:20.256Z,28.10
2022-08-25T17:33:18.191Z,27.30
2022-08-25T17:35:55.101Z,27.40
2022-08-25T17:38:26.732Z,27.50
2022-08-25T17:41:00.244Z,27.60
2022-08-25T17:43:29.900Z,27.50
2022-08-25T17:48:28.905Z,27.50
2022-08-25T17:51:02.032Z,27.40
2022-08-25T17:53:30.915Z,27.30
2022-08-25T17:56:01.969Z,27.30
2022-08-25T17:58:32.016Z,27.30
2022-08-25T18:35:58.972Z,26.70
2022-08-25T18:58:49.144Z,26.20
2022-08-25T19:16:11.893Z,25.90
2022-08-25T19:26:17.026Z,25.70
2022-08-25T19:28:48.847Z,25.70
2022-08-25T19:31:19.725Z,25.60
2022-08-25T19:33:53.792Z,25.60
2022-08-25T19:36:28.889Z,25.50
2022-08-25T19:41:31.292Z,25.40
2022-08-25T19:46:36.101Z,25.30
2022-08-25T19:49:28.377Z,25.30
2022-08-25T19:52:05.520Z,25.30
2022-08-25T19:54:46.131Z,25.30
2022-08-25T19:57:27.881Z,25.30
2022-08-25T20:00:08.342Z,25.20
2022-08-25T20:05:06.230Z,25.10
2022-08-25T20:20:07.130Z,25.00
2022-08-25T20:25:15.282Z,24.20
2022-08-25T20:27:50.740Z,24.80
2022-08-25T20:30:26.137Z,24.80
2022-08-25T20:32:56.561Z,24.70
2022-08-25T20:35:27.415Z,24.70
2022-08-25T20:38:00.348Z,24.70
2022-08-25T20:40:31.165Z,24.70
2022-08-25T20:43:03.298Z,24.60
2022-08-25T21:00:26.445Z,24.40
2022-08-25T22:30:29.540Z,23.00
2022-08-25T22:40:27.733Z,22.90
2022-08-25T22:55:22.947Z,22.50
2022-08-25T23:40:27.754Z,22.20
